Time;durP1;ratioP1;P1;durP2;ratioP2;P2;SDS_P1;SDS_P2;PMS_P1;PMS_P2;Temp;Humidity;BMP_temperature;BMP_pressure;BME280_temperature;BME280_humidity;BME280_pressure;Samples;Min_cycle;Max_cycle;Signal;HPM_P1;HPM_P2
2021/05/10 00:01:30;;;;;;;2.60;1.80;;;19.30;99.90;;;;;;5015884;28;20178;-70
2021/05/10 00:03:56;;;;;;;2.10;1.77;;;19.30;99.90;;;;;;5010771;28;20202;-70
2021/05/10 00:06:21;;;;;;;1.83;1.63;;;19.30;99.90;;;;;;5009996;28;20434;-70
2021/05/10 00:08:48;;;;;;;3.70;1.70;;;19.30;99.90;;;;;;5018930;28;20248;-69
2021/05/10 00:11:14;;;;;;;2.30;2.10;;;19.40;99.90;;;;;;5016753;28;20190;-70
2021/05/10 00:13:47;;;;;;;1.87;1.63;;;19.30;99.90;;;;;;5017334;28;20455;-70
2021/05/10 00:16:12;;;;;;;1.73;1.50;;;19.30;99.90;;;;;;5017679;28;20535;-70
2021/05/10 00:18:38;;;;;;;1.90;1.80;;;19.20;99.90;;;;;;5018491;28;20910;-69
2021/05/10 00:21:04;;;;;;;1.67;1.57;;;19.20;99.90;;;;;;5030014;28;20197;-69
2021/05/10 00:23:30;;;;;;;1.50;1.40;;;19.20;99.90;;;;;;5014727;28;20261;-69
2021/05/10 00:25:56;;;;;;;1.70;1.60;;;19.20;99.90;;;;;;5018858;28;20433;-70
2021/05/10 00:28:22;;;;;;;1.90;1.80;;;19.20;99.90;;;;;;5016862;28;20187;-70
2021/05/10 00:30:47;;;;;;;2.00;1.87;;;19.20;99.90;;;;;;5018510;28;20500;-69
2021/05/10 00:33:13;;;;;;;1.63;1.53;;;19.20;99.90;;;;;;5017611;28;20185;-69
2021/05/10 00:35:39;;;;;;;2.07;1.93;;;19.20;99.90;;;;;;5014555;28;20178;-69
2021/05/10 00:38:04;;;;;;;2.00;1.90;;;19.10;99.90;;;;;;5012587;28;20186;-69
2021/05/10 00:40:32;;;;;;;3.43;1.50;;;19.00;99.90;;;;;;5020381;28;20178;-69
2021/05/10 00:42:59;;;;;;;2.50;1.67;;;19.00;99.90;;;;;;5019069;28;20210;-69
2021/05/10 00:45:26;;;;;;;2.23;1.87;;;18.90;99.90;;;;;;5015193;28;20555;-69
2021/05/10 00:47:52;;;;;;;1.70;1.60;;;18.80;99.90;;;;;;5016835;28;20475;-69
2021/05/10 00:50:19;;;;;;;1.90;1.80;;;18.70;99.90;;;;;;5014775;28;20525;-69
2021/05/10 00:52:44;;;;;;;2.07;1.60;;;18.60;99.90;;;;;;5022049;28;20724;-69
2021/05/10 00:55:12;;;;;;;1.97;1.80;;;18.50;99.90;;;;;;5021806;28;20452;-69
2021/05/10 00:57:46;;;;;;;1.80;1.70;;;18.40;99.90;;;;;;5020900;28;20240;-70
2021/05/10 01:00:14;;;;;;;1.87;1.77;;;18.30;99.90;;;;;;5019911;28;20437;-69
2021/05/10 01:02:41;;;;;;;1.83;1.70;;;18.20;99.90;;;;;;5021322;28;20956;-69
2021/05/10 01:05:08;;;;;;;1.97;1.87;;;18.00;99.90;;;;;;5021835;28;20451;-69
2021/05/10 01:07:34;;;;;;;1.93;1.83;;;17.90;99.90;;;;;;5021328;28;20489;-69
2021/05/10 01:10:03;;;;;;;1.87;1.77;;;17.80;99.90;;;;;;5020833;28;20762;-69
2021/05/10 01:12:29;;;;;;;1.93;1.83;;;17.60;99.90;;;;;;5016349;28;20448;-70
2021/05/10 01:14:56;;;;;;;1.90;1.80;;;17.50;99.90;;;;;;5020701;28;20425;-69
2021/05/10 01:17:21;;;;;;;2.00;1.90;;;17.40;99.90;;;;;;5016272;28;20273;-68
2021/05/10 01:19:47;;;;;;;1.70;1.60;;;17.40;99.90;;;;;;5018513;28;20428;-69
2021/05/10 01:22:15;;;;;;;2.03;1.93;;;17.30;99.90;;;;;;5018826;28;20193;-68
2021/05/10 01:24:40;;;;;;;1.90;1.80;;;17.30;99.90;;;;;;5017724;28;20177;-69
2021/05/10 01:27:06;;;;;;;2.13;2.03;;;17.30;99.90;;;;;;5021483;28;20815;-69
2021/05/10 01:29:32;;;;;;;1.57;1.47;;;17.20;99.90;;;;;;5023126;28;20186;-69
2021/05/10 01:31:58;;;;;;;1.80;1.70;;;17.20;99.90;;;;;;5017666;28;20190;-68
2021/05/10 01:34:23;;;;;;;2.47;2.30;;;17.20;99.90;;;;;;5015882;28;20236;-68
2021/05/10 01:36:49;;;;;;;2.47;2.27;;;17.20;99.90;;;;;;5013872;28;20480;-68
2021/05/10 01:39:15;;;;;;;1.67;1.60;;;17.10;99.90;;;;;;5015343;28;20224;-68
2021/05/10 01:41:40;;;;;;;2.70;1.97;;;17.10;99.90;;;;;;5013969;28;20184;-68
2021/05/10 01:44:06;;;;;;;1.47;1.47;;;17.20;99.90;;;;;;5017849;28;20268;-68
2021/05/10 01:46:32;;;;;;;3.70;1.97;;;17.10;99.90;;;;;;5017448;28;20182;-69
2021/05/10 01:48:58;;;;;;;2.13;2.03;;;17.20;99.90;;;;;;5018801;28;20456;-68
2021/05/10 01:51:25;;;;;;;2.17;2.07;;;17.20;99.90;;;;;;5022832;28;20190;-68
2021/05/10 01:53:51;;;;;;;2.40;2.20;;;17.30;99.90;;;;;;5016429;28;20203;-68
2021/05/10 01:56:16;;;;;;;3.00;1.70;;;17.30;99.90;;;;;;5015303;28;20448;-68
2021/05/10 01:58:49;;;;;;;2.07;1.87;;;17.30;99.90;;;;;;5015608;28;20433;-68
2021/05/10 02:01:14;;;;;;;1.50;1.50;;;17.30;99.90;;;;;;5018877;28;20194;-68
2021/05/10 02:03:40;;;;;;;1.33;1.23;;;17.30;99.90;;;;;;5017597;28;20452;-68
2021/05/10 02:06:06;;;;;;;1.77;1.67;;;17.30;99.90;;;;;;5018660;28;20178;-69
2021/05/10 02:08:31;;;;;;;1.83;1.73;;;17.30;99.90;;;;;;5012368;28;20256;-68
2021/05/10 02:10:57;;;;;;;1.90;1.80;;;17.30;99.90;;;;;;5016187;28;20195;-69
2021/05/10 02:13:24;;;;;;;1.67;1.60;;;17.30;99.90;;;;;;5009720;28;20190;-69
2021/05/10 02:15:55;;;;;;;1.93;1.80;;;17.30;99.90;;;;;;5015910;28;20214;-68
2021/05/10 02:18:30;;;;;;;1.63;1.20;;;17.30;99.90;;;;;;5019821;28;20527;-68
2021/05/10 02:20:56;;;;;;;1.67;1.57;;;17.40;99.90;;;;;;5018837;28;20950;-68
2021/05/10 02:23:31;;;;;;;2.03;1.53;;;17.50;99.90;;;;;;5013032;28;20469;-69
2021/05/10 02:25:59;;;;;;;2.20;1.50;;;17.50;99.90;;;;;;5017788;28;20818;-68
2021/05/10 02:28:27;;;;;;;1.70;1.60;;;17.60;99.90;;;;;;5023483;28;20730;-68
2021/05/10 02:30:55;;;;;;;1.90;1.80;;;17.70;99.90;;;;;;5018671;28;20438;-68
2021/05/10 02:33:22;;;;;;;5.23;1.60;;;17.80;99.90;;;;;;5018721;28;20464;-68
2021/05/10 02:35:50;;;;;;;1.90;1.30;;;17.90;99.90;;;;;;5020579;28;20424;-68
2021/05/10 02:38:16;;;;;;;1.73;1.63;;;17.90;99.90;;;;;;5018137;28;20779;-68
2021/05/10 02:40:43;;;;;;;3.07;1.90;;;18.00;99.90;;;;;;5018363;28;20932;-68
2021/05/10 02:43:09;;;;;;;1.50;1.40;;;18.10;99.90;;;;;;5020347;28;20465;-68
2021/05/10 02:45:35;;;;;;;1.87;1.70;;;18.20;99.90;;;;;;5018041;28;20903;-68
2021/05/10 02:48:01;;;;;;;4.00;1.53;;;18.10;99.90;;;;;;5023296;28;20197;-68
2021/05/10 02:50:27;;;;;;;2.13;1.50;;;18.20;99.90;;;;;;5019287;28;20202;-68
2021/05/10 02:52:54;;;;;;;1.70;1.60;;;18.20;99.90;;;;;;5019711;28;20190;-68
2021/05/10 02:55:20;;;;;;;1.80;1.70;;;18.20;99.90;;;;;;5018655;28;20832;-69
2021/05/10 02:57:48;;;;;;;1.90;1.80;;;18.30;99.90;;;;;;5007423;28;20819;-69
2021/05/10 03:00:15;;;;;;;1.70;1.60;;;18.30;99.90;;;;;;5015763;28;20447;-69
2021/05/10 03:02:41;;;;;;;1.43;1.33;;;18.30;99.90;;;;;;5020376;28;20494;-69
2021/05/10 03:05:09;;;;;;;1.80;1.70;;;18.30;99.90;;;;;;5016815;28;20432;-69
2021/05/10 03:07:36;;;;;;;1.50;1.50;;;18.40;99.90;;;;;;5017244;28;20281;-68
2021/05/10 03:10:05;;;;;;;1.50;1.40;;;18.40;99.90;;;;;;5018578;28;20445;-68
2021/05/10 03:12:30;;;;;;;1.50;1.50;;;18.50;99.90;;;;;;5017111;28;20428;-68
2021/05/10 03:14:56;;;;;;;1.40;1.40;;;18.50;99.90;;;;;;5018061;28;20914;-68
2021/05/10 03:17:22;;;;;;;2.30;1.40;;;18.50;99.90;;;;;;5016344;28;20175;-68
2021/05/10 03:19:48;;;;;;;1.53;1.43;;;18.40;99.90;;;;;;5019807;28;20214;-68
2021/05/10 03:22:14;;;;;;;1.97;1.40;;;18.40;99.90;;;;;;5019279;28;20187;-68
2021/05/10 03:24:40;;;;;;;1.60;1.50;;;18.30;99.90;;;;;;5016285;28;20571;-69
2021/05/10 03:27:06;;;;;;;1.40;1.30;;;18.20;99.90;;;;;;5016102;28;20190;-68
2021/05/10 03:29:32;;;;;;;2.00;1.90;;;18.20;99.90;;;;;;5018104;28;20428;-68
2021/05/10 03:31:58;;;;;;;1.93;1.40;;;18.20;99.90;;;;;;5016448;28;20636;-68
2021/05/10 03:34:23;;;;;;;3.50;1.60;;;18.20;99.90;;;;;;5015977;28;20186;-68
2021/05/10 03:36:49;;;;;;;1.97;1.87;;;18.10;99.90;;;;;;5019353;28;20502;-68
2021/05/10 03:39:15;;;;;;;3.73;1.43;;;18.00;99.90;;;;;;5017752;28;20232;-68
2021/05/10 03:41:40;;;;;;;1.90;1.80;;;17.90;99.90;;;;;;5017820;28;20186;-68
2021/05/10 03:44:06;;;;;;;1.87;1.77;;;17.80;99.90;;;;;;5015801;28;20261;-68
2021/05/10 03:46:32;;;;;;;1.73;1.63;;;17.70;99.90;;;;;;5016383;28;20238;-68
2021/05/10 03:48:57;;;;;;;1.83;1.73;;;17.70;99.90;;;;;;5019751;28;20202;-68
2021/05/10 03:51:23;;;;;;;1.80;1.70;;;17.50;99.90;;;;;;5017204;28;20178;-68
2021/05/10 03:53:48;;;;;;;1.87;1.77;;;17.50;99.90;;;;;;5019087;28;20190;-68
2021/05/10 03:56:14;;;;;;;1.60;1.50;;;17.40;99.90;;;;;;5015323;28;20623;-68
2021/05/10 03:58:40;;;;;;;2.83;2.13;;;17.30;99.90;;;;;;5015960;28;20182;-68
2021/05/10 04:01:07;;;;;;;1.50;1.40;;;17.20;99.90;;;;;;5015316;28;20194;-68
2021/05/10 04:03:42;;;;;;;2.00;1.90;;;17.20;99.90;;;;;;5016482;28;20492;-68
2021/05/10 04:14:10;;;;;;;2.20;2.10;;;17.10;99.90;;;;;;5010920;28;20914;-68
2021/05/10 04:16:35;;;;;;;2.10;2.00;;;17.00;99.90;;;;;;5013084;28;20441;-68
2021/05/10 04:19:01;;;;;;;2.03;1.93;;;17.00;99.90;;;;;;5016473;28;20449;-68
2021/05/10 04:21:26;;;;;;;2.00;1.90;;;17.00;99.90;;;;;;5018516;28;20210;-68
2021/05/10 04:23:52;;;;;;;1.77;1.67;;;17.00;99.90;;;;;;5017129;28;20202;-68
2021/05/10 04:26:18;;;;;;;1.90;1.80;;;17.00;99.90;;;;;;5019188;28;20702;-68
2021/05/10 04:28:43;;;;;;;1.53;1.53;;;17.10;99.90;;;;;;5016805;28;20552;-68
2021/05/10 04:31:09;;;;;;;2.23;1.80;;;17.10;99.90;;;;;;5016185;28;20178;-68
2021/05/10 04:33:35;;;;;;;2.10;2.00;;;17.20;99.90;;;;;;5014533;28;20625;-68
2021/05/10 04:36:01;;;;;;;3.33;1.83;;;17.20;99.90;;;;;;5015401;28;20565;-68
2021/05/10 04:38:27;;;;;;;1.93;1.83;;;17.30;99.90;;;;;;5018831;28;20185;-68
2021/05/10 04:40:55;;;;;;;1.90;1.80;;;17.40;99.90;;;;;;5014635;28;20445;-68
2021/05/10 04:43:21;;;;;;;1.70;1.60;;;17.30;99.90;;;;;;5018480;28;20547;-68
2021/05/10 04:45:47;;;;;;;2.10;2.00;;;17.30;99.90;;;;;;5016191;28;20436;-68
2021/05/10 04:48:12;;;;;;;2.30;2.03;;;17.20;99.90;;;;;;5018387;28;20496;-68
2021/05/10 04:50:38;;;;;;;1.83;1.73;;;17.20;99.90;;;;;;5016638;28;20227;-68
2021/05/10 04:53:09;;;;;;;2.13;1.93;;;17.20;99.90;;;;;;5015269;28;20218;-68
2021/05/10 04:55:34;;;;;;;2.10;2.00;;;17.10;99.90;;;;;;5013672;28;20203;-68
2021/05/10 04:58:00;;;;;;;2.10;2.00;;;17.10;99.90;;;;;;5015833;28;20457;-68
2021/05/10 05:00:26;;;;;;;3.93;2.10;;;17.10;99.90;;;;;;5011264;28;20910;-69
2021/05/10 05:02:52;;;;;;;5.13;2.20;;;17.10;99.90;;;;;;5016155;28;20238;-68
2021/05/10 05:05:17;;;;;;;1.60;1.60;;;17.10;99.90;;;;;;5014598;28;20194;-68
2021/05/10 05:07:43;;;;;;;2.10;2.00;;;17.10;99.90;;;;;;5015889;28;20624;-68
2021/05/10 05:10:10;;;;;;;2.43;2.20;;;17.10;99.90;;;;;;5016686;28;20174;-69
2021/05/10 05:12:39;;;;;;;2.40;2.30;;;17.10;99.90;;;;;;5017351;28;20208;-69
2021/05/10 05:15:10;;;;;;;2.27;2.07;;;17.20;99.90;;;;;;5017146;28;20417;-69
2021/05/10 05:17:39;;;;;;;2.30;2.20;;;17.20;99.90;;;;;;5012934;28;20924;-69
2021/05/10 05:20:06;;;;;;;2.37;2.27;;;17.20;99.90;;;;;;5010769;28;20434;-69
2021/05/10 05:22:31;;;;;;;2.13;2.03;;;17.20;99.90;;;;;;5014976;28;20801;-69
2021/05/10 05:24:57;;;;;;;2.30;2.20;;;17.20;99.90;;;;;;5013425;28;20476;-69
2021/05/10 05:27:24;;;;;;;2.30;2.20;;;17.20;99.90;;;;;;5006677;28;20553;-69
2021/05/10 05:29:50;;;;;;;1.90;1.80;;;17.20;99.90;;;;;;5008326;28;20488;-68
2021/05/10 05:32:15;;;;;;;2.60;2.23;;;17.20;99.90;;;;;;5006590;28;20551;-68
2021/05/10 05:34:41;;;;;;;2.27;2.17;;;17.20;99.90;;;;;;5011066;28;20634;-68
2021/05/10 05:37:07;;;;;;;2.33;2.23;;;17.20;99.90;;;;;;5018985;28;20186;-68
2021/05/10 05:39:32;;;;;;;2.30;2.10;;;17.20;99.90;;;;;;5020725;28;20182;-69
2021/05/10 05:41:59;;;;;;;1.90;1.80;;;17.20;99.90;;;;;;5008633;28;20187;-68
2021/05/10 05:44:25;;;;;;;3.80;2.27;;;17.20;99.90;;;;;;5011275;28;20276;-69
2021/05/10 05:46:59;;;;;;;2.70;2.50;;;17.30;99.90;;;;;;5015809;28;20429;-69
2021/05/10 05:49:24;;;;;;;2.60;2.40;;;17.30;99.90;;;;;;5016578;28;20433;-68
2021/05/10 05:51:50;;;;;;;2.20;2.10;;;17.40;99.90;;;;;;5019337;28;20448;-68
2021/05/10 05:54:16;;;;;;;2.50;2.40;;;17.40;99.90;;;;;;5015325;28;20274;-68
2021/05/10 05:56:42;;;;;;;2.90;2.70;;;17.50;99.90;;;;;;5018785;28;20185;-69
2021/05/10 05:59:08;;;;;;;4.03;2.50;;;17.50;99.90;;;;;;5017728;28;20276;-69
2021/05/10 06:01:34;;;;;;;3.07;2.77;;;17.60;99.90;;;;;;5013173;28;20214;-69
2021/05/10 06:04:00;;;;;;;2.93;2.63;;;17.60;99.90;;;;;;5008872;28;20468;-69
2021/05/10 06:06:26;;;;;;;3.03;2.90;;;17.60;99.90;;;;;;5018097;28;20781;-70
2021/05/10 06:08:51;;;;;;;2.43;2.23;;;17.60;99.90;;;;;;5014308;28;20500;-69
2021/05/10 06:11:17;;;;;;;3.83;2.20;;;17.60;99.90;;;;;;5014019;28;20223;-69
2021/05/10 06:13:43;;;;;;;2.90;2.70;;;17.70;99.90;;;;;;5010851;28;20198;-69
2021/05/10 06:16:09;;;;;;;2.80;2.60;;;17.70;99.90;;;;;;5008635;28;20186;-69
2021/05/10 06:18:35;;;;;;;3.17;2.97;;;17.70;99.90;;;;;;5018275;28;20615;-69
2021/05/10 06:21:03;;;;;;;2.70;2.20;;;17.70;99.90;;;;;;5013360;28;20444;-69
2021/05/10 06:23:29;;;;;;;3.00;2.80;;;17.80;99.90;;;;;;5012717;28;20230;-69
2021/05/10 06:25:55;;;;;;;2.20;2.10;;;17.80;99.90;;;;;;5013187;28;20969;-69
2021/05/10 06:28:21;;;;;;;3.03;2.07;;;17.80;99.90;;;;;;5006233;28;20442;-70
2021/05/10 06:30:47;;;;;;;2.60;2.50;;;17.80;99.90;;;;;;5009312;28;20431;-70
2021/05/10 06:33:13;;;;;;;3.77;2.90;;;17.90;99.90;;;;;;5017131;28;20186;-69
2021/05/10 06:35:38;;;;;;;3.10;2.80;;;18.00;99.90;;;;;;5017372;28;20434;-70
2021/05/10 06:38:04;;;;;;;2.80;2.60;;;18.10;99.90;;;;;;5003740;28;20221;-70
2021/05/10 06:40:30;;;;;;;3.43;3.13;;;18.00;99.90;;;;;;4999017;28;20711;-70
2021/05/10 06:42:56;;;;;;;4.03;3.60;;;18.00;99.90;;;;;;5002909;28;20274;-69
2021/05/10 06:45:21;;;;;;;3.43;3.17;;;18.00;99.90;;;;;;4999965;28;20182;-69
2021/05/10 06:47:48;;;;;;;4.13;2.70;;;17.90;99.90;;;;;;5008833;28;20196;-69
2021/05/10 06:50:14;;;;;;;4.70;2.70;;;18.00;99.90;;;;;;5007655;28;20183;-69
2021/05/10 06:52:40;;;;;;;2.73;2.53;;;18.00;99.90;;;;;;5015399;28;20540;-68
2021/05/10 06:55:07;;;;;;;4.47;3.17;;;18.10;99.90;;;;;;5018497;28;20517;-68
2021/05/10 06:57:33;;;;;;;2.83;2.60;;;18.30;99.90;;;;;;5017545;28;20178;-68
2021/05/10 06:59:59;;;;;;;3.20;3.00;;;18.50;99.90;;;;;;5017171;28;20491;-68
2021/05/10 07:02:26;;;;;;;3.20;2.90;;;18.60;99.90;;;;;;5010572;28;20510;-68
2021/05/10 07:04:52;;;;;;;3.00;2.80;;;18.70;99.90;;;;;;5008587;28;20429;-68
2021/05/10 07:07:18;;;;;;;2.90;2.60;;;18.90;99.90;;;;;;5014966;28;20733;-69
2021/05/10 07:09:43;;;;;;;3.27;3.00;;;19.10;99.90;;;;;;5009975;28;20171;-68
2021/05/10 07:12:12;;;;;;;5.10;2.90;;;19.20;99.90;;;;;;5013215;28;20787;-69
2021/05/10 07:14:38;;;;;;;3.63;2.77;;;19.40;99.90;;;;;;5007073;28;20629;-69
2021/05/10 07:17:03;;;;;;;2.70;2.60;;;19.50;99.90;;;;;;5005104;28;20475;-68
2021/05/10 07:19:29;;;;;;;2.87;2.67;;;19.60;99.90;;;;;;5007245;28;20863;-68
2021/05/10 07:21:55;;;;;;;2.53;2.43;;;19.70;99.90;;;;;;5006220;28;20186;-69
2021/05/10 07:24:20;;;;;;;2.43;2.33;;;19.70;99.90;;;;;;5010066;28;20203;-68
2021/05/10 07:26:46;;;;;;;2.90;2.70;;;19.70;99.90;;;;;;5007230;28;20178;-70
2021/05/10 07:29:12;;;;;;;2.30;2.10;;;19.80;99.90;;;;;;5012604;28;20174;-69
2021/05/10 07:31:38;;;;;;;1.80;1.70;;;19.80;99.90;;;;;;5004928;28;20206;-69
2021/05/10 07:34:03;;;;;;;4.10;2.50;;;19.70;99.90;;;;;;5000622;28;20182;-70
2021/05/10 07:36:29;;;;;;;4.77;2.93;;;19.80;99.90;;;;;;5004335;28;20213;-69
2021/05/10 07:38:55;;;;;;;2.70;2.50;;;19.90;99.90;;;;;;5005500;28;20828;-68
2021/05/10 07:41:20;;;;;;;2.70;2.17;;;20.00;99.90;;;;;;5002842;28;20309;-69
2021/05/10 07:43:46;;;;;;;5.20;2.30;;;20.10;99.90;;;;;;5010743;28;20211;-69
2021/05/10 07:46:12;;;;;;;2.53;2.33;;;20.30;99.90;;;;;;5005234;28;20182;-69
2021/05/10 07:48:38;;;;;;;2.83;2.63;;;20.50;99.90;;;;;;5002464;28;20191;-69
2021/05/10 07:51:04;;;;;;;2.37;1.90;;;20.70;99.90;;;;;;5012286;28;20596;-69
2021/05/10 07:53:29;;;;;;;2.30;2.10;;;21.00;99.90;;;;;;5013262;28;20232;-69
2021/05/10 07:55:55;;;;;;;2.93;2.13;;;21.30;99.90;;;;;;5005381;28;20520;-69
2021/05/10 07:58:25;;;;;;;6.33;1.97;;;21.60;99.90;;;;;;5010309;28;20201;-69
2021/05/10 08:01:00;;;;;;;3.17;2.00;;;21.80;99.90;;;;;;5007409;28;20645;-69
2021/05/10 08:03:27;;;;;;;2.13;2.03;;;21.90;99.90;;;;;;5007179;28;20457;-69
2021/05/10 08:05:53;;;;;;;1.97;1.87;;;22.10;99.90;;;;;;5010483;28;20433;-69
2021/05/10 08:08:22;;;;;;;2.13;1.80;;;22.40;99.90;;;;;;5008319;28;20452;-69
2021/05/10 08:10:48;;;;;;;4.07;1.73;;;23.00;99.90;;;;;;5005130;28;20228;-69
2021/05/10 08:13:14;;;;;;;4.03;1.53;;;23.30;99.90;;;;;;5004286;28;20433;-69
2021/05/10 08:15:40;;;;;;;1.70;1.60;;;23.30;99.90;;;;;;5005738;28;20433;-69
2021/05/10 08:18:06;;;;;;;1.77;1.67;;;23.40;99.90;;;;;;5010131;28;20237;-69
2021/05/10 08:20:32;;;;;;;2.57;1.90;;;23.60;99.90;;;;;;5011548;28;20184;-69
2021/05/10 08:22:58;;;;;;;1.57;1.47;;;23.70;99.90;;;;;;5019206;28;20925;-69
2021/05/10 08:25:24;;;;;;;2.03;1.93;;;23.80;99.90;;;;;;5014117;28;20429;-70
2021/05/10 08:27:50;;;;;;;2.73;1.53;;;23.70;99.90;;;;;;5007758;28;20632;-69
2021/05/10 08:30:17;;;;;;;2.90;1.50;;;23.70;99.90;;;;;;5001602;28;20757;-70
2021/05/10 08:32:43;;;;;;;10.40;1.93;;;23.90;99.90;;;;;;5004816;28;20476;-70
2021/05/10 08:35:10;;;;;;;2.40;1.50;;;24.00;99.90;;;;;;5009172;28;20510;-70
2021/05/10 08:37:37;;;;;;;1.53;1.43;;;24.10;99.90;;;;;;5009025;28;20441;-70
2021/05/10 08:40:05;;;;;;;1.80;1.70;;;24.20;99.90;;;;;;5007629;28;20421;-70
2021/05/10 08:42:31;;;;;;;3.83;1.80;;;24.30;99.90;;;;;;5009656;28;20429;-69
2021/05/10 08:44:59;;;;;;;2.13;1.70;;;24.20;99.90;;;;;;5005272;28;20919;-70
2021/05/10 08:47:32;;;;;;;2.33;1.63;;;24.10;99.90;;;;;;5002285;28;20449;-70
2021/05/10 08:50:08;;;;;;;1.77;1.67;;;24.10;99.90;;;;;;5005690;28;20421;-70
2021/05/10 08:52:35;;;;;;;2.00;1.80;;;24.20;99.90;;;;;;5011716;28;20448;-70
2021/05/10 08:55:02;;;;;;;1.83;1.73;;;24.20;99.90;;;;;;5005489;28;20839;-70
2021/05/10 08:57:27;;;;;;;2.07;1.80;;;24.10;99.90;;;;;;5006470;28;20451;-69
2021/05/10 08:59:53;;;;;;;4.83;1.80;;;24.00;99.90;;;;;;5017962;28;20428;-69
2021/05/10 09:02:39;;;;;;;1.93;1.50;;;24.00;99.90;;;;;;5011016;28;20282;-70
2021/05/10 09:05:22;;;;;;;1.87;1.70;;;24.00;99.90;;;;;;5015906;28;20217;-69
2021/05/10 09:08:07;;;;;;;2.60;1.40;;;24.10;99.90;;;;;;5007544;28;20484;-70
2021/05/10 09:10:33;;;;;;;1.60;1.50;;;24.20;99.90;;;;;;5007998;28;20451;-70
2021/05/10 09:12:59;;;;;;;2.07;1.67;;;24.40;99.90;;;;;;5016456;28;20433;-70
2021/05/10 09:15:32;;;;;;;1.90;1.50;;;24.70;99.90;;;;;;5009938;28;20568;-70
2021/05/10 09:18:06;;;;;;;1.47;1.37;;;24.80;99.90;;;;;;5007348;28;21978;-70
2021/05/10 09:20:35;;;;;;;2.50;1.53;;;24.90;99.90;;;;;;5021982;28;20434;-70
2021/05/10 09:23:04;;;;;;;2.03;1.60;;;24.90;99.90;;;;;;5016810;28;20448;-70
2021/05/10 09:25:40;;;;;;;4.63;1.80;;;25.00;99.90;;;;;;5013602;28;20756;-70
2021/05/10 09:28:17;;;;;;;1.97;1.80;;;25.00;99.90;;;;;;5018832;28;20869;-70
2021/05/10 09:30:44;;;;;;;2.93;1.80;;;25.00;99.90;;;;;;5009362;28;20521;-70
2021/05/10 09:33:26;;;;;;;1.70;1.60;;;25.00;99.90;;;;;;5009553;28;20445;-70
2021/05/10 09:35:56;;;;;;;1.90;1.80;;;25.00;99.90;;;;;;5007267;28;20429;-70
2021/05/10 09:38:28;;;;;;;1.57;1.47;;;25.00;99.90;;;;;;5004411;28;20458;-70
2021/05/10 09:40:58;;;;;;;1.30;1.30;;;25.20;99.90;;;;;;5003161;28;20436;-70
2021/05/10 09:43:35;;;;;;;4.60;1.83;;;25.20;99.40;;;;;;5007769;28;20978;-70
2021/05/10 09:46:10;;;;;;;1.30;1.30;;;25.30;99.90;;;;;;5008007;28;20417;-70
2021/05/10 09:48:39;;;;;;;3.93;1.60;;;25.40;99.80;;;;;;5002829;28;20456;-70
2021/05/10 09:51:13;;;;;;;1.20;1.20;;;25.60;99.90;;;;;;5016875;28;20977;-70
2021/05/10 09:53:48;;;;;;;3.53;1.43;;;25.70;99.60;;;;;;5006321;28;20425;-70
2021/05/10 09:56:19;;;;;;;2.20;1.60;;;25.90;97.90;;;;;;5006516;28;20420;-70
2021/05/10 09:58:46;;;;;;;3.23;1.60;;;26.00;98.20;;;;;;5006680;28;20886;-70
2021/05/10 10:01:13;;;;;;;1.53;1.43;;;26.00;98.70;;;;;;5009626;28;22524;-70
2021/05/10 10:03:41;;;;;;;2.70;1.50;;;25.90;98.90;;;;;;5003020;28;20826;-70
2021/05/10 10:06:09;;;;;;;2.50;1.80;;;25.70;98.70;;;;;;5004534;28;21014;-70
2021/05/10 10:08:36;;;;;;;5.33;1.60;;;25.60;98.50;;;;;;5010363;28;20429;-70
2021/05/10 10:11:04;;;;;;;1.53;1.43;;;25.60;99.40;;;;;;5003815;28;20483;-70
2021/05/10 10:13:30;;;;;;;1.90;1.80;;;25.60;99.60;;;;;;5010098;28;20841;-70
2021/05/10 10:15:57;;;;;;;5.17;2.43;;;25.60;99.40;;;;;;4999691;28;20457;-75
2021/05/10 10:18:24;;;;;;;1.80;1.70;;;25.50;99.50;;;;;;4994577;28;20565;-76
2021/05/10 10:20:52;;;;;;;2.00;1.80;;;25.60;98.80;;;;;;5001400;28;20869;-74
2021/05/10 10:23:20;;;;;;;3.07;1.77;;;25.90;99.20;;;;;;4996503;28;20528;-74
2021/05/10 10:25:46;;;;;;;2.17;1.97;;;26.30;98.50;;;;;;5003581;28;20437;-75
2021/05/10 10:28:15;;;;;;;3.07;1.50;;;26.50;97.50;;;;;;5002267;28;20432;-76
2021/05/10 10:30:48;;;;;;;2.97;2.00;;;26.40;97.60;;;;;;5004888;28;20516;-78
2021/05/10 10:33:20;;;;;;;4.20;1.83;;;26.20;97.70;;;;;;4999056;28;20452;-68
2021/05/10 10:35:47;;;;;;;4.50;1.50;;;26.10;97.00;;;;;;4999495;28;20440;-70
2021/05/10 10:38:13;;;;;;;1.50;1.40;;;25.90;97.70;;;;;;5001316;28;20535;-70
2021/05/10 10:40:39;;;;;;;3.97;1.77;;;25.70;97.70;;;;;;4998070;28;20563;-70
2021/05/10 10:43:28;;;;;;;3.43;2.20;;;25.70;97.80;;;;;;4999940;28;20293;-70
2021/05/10 10:46:18;;;;;;;1.60;1.50;;;25.50;97.50;;;;;;4999484;28;20434;-70
2021/05/10 10:48:45;;;;;;;4.97;1.77;;;25.60;98.10;;;;;;5004666;28;21807;-76
2021/05/10 10:51:13;;;;;;;1.83;1.53;;;25.60;98.50;;;;;;5003081;28;20934;-74
2021/05/10 10:53:48;;;;;;;2.37;1.97;;;25.70;98.20;;;;;;4999945;28;20491;-74
2021/05/10 10:56:15;;;;;;;1.50;1.40;;;25.90;98.30;;;;;;4999959;28;20455;-74
2021/05/10 10:58:43;;;;;;;2.53;1.53;;;25.90;98.50;;;;;;5002838;28;20451;-74
2021/05/10 11:01:19;;;;;;;1.60;1.50;;;25.90;98.10;;;;;;5004462;28;20508;-74
2021/05/10 11:03:47;;;;;;;2.17;1.80;;;25.80;98.20;;;;;;5001319;28;20467;-74
2021/05/10 11:06:13;;;;;;;4.60;1.60;;;25.70;98.30;;;;;;5002746;28;20449;-70
2021/05/10 11:08:54;;;;;;;2.20;2.00;;;25.60;98.20;;;;;;5008662;28;20793;-70
2021/05/10 11:11:26;;;;;;;1.50;1.40;;;25.60;98.90;;;;;;5008498;28;22019;-69
2021/05/10 11:13:51;;;;;;;1.40;1.40;;;25.80;98.50;;;;;;5010892;28;20442;-70
2021/05/10 11:16:20;;;;;;;1.67;1.57;;;26.00;98.30;;;;;;5005752;28;20441;-70
2021/05/10 11:18:54;;;;;;;1.83;1.73;;;26.50;98.50;;;;;;5008024;28;20171;-71
2021/05/10 11:21:23;;;;;;;1.63;1.53;;;27.00;97.30;;;;;;5010366;28;20440;-70
2021/05/10 11:23:52;;;;;;;1.43;1.43;;;27.40;95.90;;;;;;5009873;28;20465;-70
2021/05/10 11:26:39;;;;;;;7.60;1.87;;;27.50;97.00;;;;;;5011627;28;20429;-70
2021/05/10 11:29:10;;;;;;;4.17;1.90;;;27.70;95.10;;;;;;4998924;28;20441;-73
2021/05/10 11:31:38;;;;;;;2.23;2.10;;;27.80;95.00;;;;;;5001073;28;20428;-73
2021/05/10 11:34:10;;;;;;;7.73;2.47;;;27.60;94.60;;;;;;5010047;28;20978;-76
2021/05/10 11:37:06;;;;;;;4.60;1.77;;;27.60;96.20;;;;;;5002891;28;20434;-75
2021/05/10 11:39:34;;;;;;;3.47;2.37;;;27.50;95.90;;;;;;4986917;28;20454;-74
2021/05/10 11:42:01;;;;;;;1.70;1.60;;;27.30;95.80;;;;;;4990122;28;20971;-73
2021/05/10 11:44:33;;;;;;;2.60;2.43;;;27.20;95.90;;;;;;4988284;28;20453;-75
2021/05/10 11:47:00;;;;;;;1.60;1.60;;;27.10;96.00;;;;;;4992005;28;20464;-75
2021/05/10 11:49:30;;;;;;;1.90;1.80;;;27.00;95.80;;;;;;4991242;28;20433;-71
2021/05/10 11:52:07;;;;;;;1.70;1.60;;;27.00;96.20;;;;;;4988825;28;20927;-71
2021/05/10 11:54:33;;;;;;;2.80;1.67;;;26.90;96.80;;;;;;4989387;28;20425;-68
2021/05/10 11:57:02;;;;;;;1.70;1.60;;;26.90;97.70;;;;;;4995868;28;20459;-68
2021/05/10 12:01:56;;;;;;;4.73;2.03;;;26.70;97.00;;;;;;4996203;28;20433;-68
2021/05/10 12:04:29;;;;;;;2.30;2.10;;;26.80;97.30;;;;;;4996056;28;20813;-71
2021/05/10 12:06:55;;;;;;;4.60;1.90;;;26.90;97.40;;;;;;4992753;28;20555;-67
2021/05/10 12:09:41;;;;;;;1.90;1.80;;;26.70;97.20;;;;;;4991278;28;20436;-68
2021/05/10 12:12:21;;;;;;;2.03;1.83;;;26.50;97.60;;;;;;4993371;28;20884;-67
2021/05/10 12:14:49;;;;;;;2.67;1.83;;;26.40;97.60;;;;;;4990875;28;20435;-67
2021/05/10 12:17:26;;;;;;;2.30;2.20;;;26.40;98.20;;;;;;4991146;28;20443;-67
2021/05/10 12:20:14;;;;;;;2.13;1.80;;;26.30;98.10;;;;;;4992094;28;20499;-67
2021/05/10 12:22:45;;;;;;;2.00;1.80;;;26.30;98.50;;;;;;4995669;28;20437;-67
2021/05/10 12:25:30;;;;;;;1.53;1.43;;;26.40;99.30;;;;;;4993067;28;20422;-67
2021/05/10 12:28:14;;;;;;;6.30;2.10;;;26.40;98.30;;;;;;4990344;28;20916;-67
2021/05/10 12:30:46;;;;;;;1.80;1.70;;;26.40;98.30;;;;;;4991869;28;20485;-66
2021/05/10 12:33:29;;;;;;;1.80;1.70;;;26.60;98.00;;;;;;4997989;28;20452;-66
2021/05/10 12:35:56;;;;;;;1.70;1.60;;;26.60;98.30;;;;;;4991042;28;20464;-66
2021/05/10 12:38:28;;;;;;;1.60;1.50;;;26.90;98.10;;;;;;4990951;28;20424;-66
2021/05/10 12:40:54;;;;;;;2.00;1.70;;;26.70;97.30;;;;;;4996497;28;20428;-66
2021/05/10 12:43:22;;;;;;;2.50;1.30;;;26.40;98.10;;;;;;4998620;28;20465;-66
2021/05/10 12:45:57;;;;;;;2.80;1.33;;;26.10;97.80;;;;;;4998982;28;20256;-67
2021/05/10 12:48:25;;;;;;;1.63;1.53;;;25.80;98.30;;;;;;5000441;28;20439;-67
2021/05/10 12:51:04;;;;;;;2.13;1.10;;;25.60;98.20;;;;;;5011613;28;20429;-71
2021/05/10 12:53:52;;;;;;;2.47;1.50;;;25.50;98.50;;;;;;4996494;28;20504;-73
2021/05/10 12:56:19;;;;;;;1.40;1.30;;;25.90;99.20;;;;;;4999446;28;20464;-71
2021/05/10 12:58:49;;;;;;;1.53;1.27;;;26.50;98.20;;;;;;4996961;28;20444;-72
2021/05/10 13:01:15;;;;;;;1.60;1.30;;;26.60;97.60;;;;;;4998391;28;20478;-69
2021/05/10 13:03:42;;;;;;;2.80;1.13;;;26.60;97.80;;;;;;5005299;28;20452;-71